sensor_id;sensor_type;location;lat;lon;timestamp;P1;durP1;ratioP1;P2;durP2;ratioP2
70967;SDS011;58629;48.808;8.820;2022-12-05T00:00:31;14.52;;;5.80;;
70967;SDS011;58629;48.808;8.820;2022-12-05T00:02:57;14.32;;;5.80;;
70967;SDS011;58629;48.808;8.820;2022-12-05T00:05:22;12.67;;;5.20;;
70967;SDS011;58629;48.808;8.820;2022-12-05T00:07:48;11.43;;;4.80;;
70967;SDS011;58629;48.808;8.820;2022-12-05T00:10:13;12.73;;;5.60;;
70967;SDS011;58629;48.808;8.820;2022-12-05T00:12:38;11.17;;;4.83;;
70967;SDS011;58629;48.808;8.820;2022-12-05T00:15:04;11.57;;;4.70;;
70967;SDS011;58629;48.808;8.820;2022-12-05T00:17:30;10.95;;;4.90;;
70967;SDS011;58629;48.808;8.820;2022-12-05T00:19:56;9.67;;;4.63;;
70967;SDS011;58629;48.808;8.820;2022-12-05T00:22:22;9.52;;;4.30;;
70967;SDS011;58629;48.808;8.820;2022-12-05T00:24:47;11.80;;;5.30;;
70967;SDS011;58629;48.808;8.820;2022-12-05T00:27:13;11.97;;;5.83;;
70967;SDS011;58629;48.808;8.820;2022-12-05T00:29:38;8.17;;;4.10;;
70967;SDS011;58629;48.808;8.820;2022-12-05T00:32:03;10.57;;;5.00;;
70967;SDS011;58629;48.808;8.820;2022-12-05T00:34:28;10.23;;;4.03;;
70967;SDS011;58629;48.808;8.820;2022-12-05T00:36:54;11.10;;;5.27;;
70967;SDS011;58629;48.808;8.820;2022-12-05T00:39:19;11.80;;;4.80;;
70967;SDS011;58629;48.808;8.820;2022-12-05T00:41:44;10.67;;;5.10;;
70967;SDS011;58629;48.808;8.820;2022-12-05T00:44:10;10.47;;;4.70;;
70967;SDS011;58629;48.808;8.820;2022-12-05T00:46:37;8.15;;;4.00;;
70967;SDS011;58629;48.808;8.820;2022-12-05T00:49:04;11.27;;;5.00;;
70967;SDS011;58629;48.808;8.820;2022-12-05T00:51:31;11.70;;;5.20;;
70967;SDS011;58629;48.808;8.820;2022-12-05T00:53:59;10.50;;;4.57;;
70967;SDS011;58629;48.808;8.820;2022-12-05T00:56:26;9.65;;;4.22;;
70967;SDS011;58629;48.808;8.820;2022-12-05T00:58:54;9.63;;;4.28;;
70967;SDS011;58629;48.808;8.820;2022-12-05T01:01:22;8.27;;;3.60;;
70967;SDS011;58629;48.808;8.820;2022-12-05T01:03:50;9.35;;;4.47;;
70967;SDS011;58629;48.808;8.820;2022-12-05T01:06:17;9.50;;;4.30;;
70967;SDS011;58629;48.808;8.820;2022-12-05T01:08:43;10.77;;;4.93;;
70967;SDS011;58629;48.808;8.820;2022-12-05T01:11:09;11.07;;;4.73;;
70967;SDS011;58629;48.808;8.820;2022-12-05T01:13:35;10.18;;;4.07;;
70967;SDS011;58629;48.808;8.820;2022-12-05T01:16:01;8.67;;;3.80;;
70967;SDS011;58629;48.808;8.820;2022-12-05T01:18:26;8.20;;;3.80;;
70967;SDS011;58629;48.808;8.820;2022-12-05T01:20:53;10.02;;;4.78;;
70967;SDS011;58629;48.808;8.820;2022-12-05T01:23:19;8.48;;;4.38;;
70967;SDS011;58629;48.808;8.820;2022-12-05T01:25:46;8.80;;;3.90;;
70967;SDS011;58629;48.808;8.820;2022-12-05T01:28:13;7.83;;;3.43;;
70967;SDS011;58629;48.808;8.820;2022-12-05T01:30:40;8.13;;;3.35;;
70967;SDS011;58629;48.808;8.820;2022-12-05T01:33:07;5.82;;;3.00;;
70967;SDS011;58629;48.808;8.820;2022-12-05T01:35:34;6.38;;;2.75;;
70967;SDS011;58629;48.808;8.820;2022-12-05T01:38:01;6.07;;;2.65;;
70967;SDS011;58629;48.808;8.820;2022-12-05T01:40:26;6.00;;;2.80;;
70967;SDS011;58629;48.808;8.820;2022-12-05T01:42:52;6.43;;;2.80;;
70967;SDS011;58629;48.808;8.820;2022-12-05T01:45:34;4.73;;;2.43;;
70967;SDS011;58629;48.808;8.820;2022-12-05T01:48:05;5.05;;;2.30;;
70967;SDS011;58629;48.808;8.820;2022-12-05T01:50:35;5.20;;;2.28;;
70967;SDS011;58629;48.808;8.820;2022-12-05T01:53:01;5.93;;;2.70;;
70967;SDS011;58629;48.808;8.820;2022-12-05T01:55:28;4.32;;;2.25;;
70967;SDS011;58629;48.808;8.820;2022-12-05T01:57:54;3.92;;;1.98;;
70967;SDS011;58629;48.808;8.820;2022-12-05T02:00:21;3.93;;;2.00;;
70967;SDS011;58629;48.808;8.820;2022-12-05T02:02:50;4.57;;;2.15;;
70967;SDS011;58629;48.808;8.820;2022-12-05T02:05:21;5.57;;;2.25;;
70967;SDS011;58629;48.808;8.820;2022-12-05T02:07:50;6.70;;;2.80;;
70967;SDS011;58629;48.808;8.820;2022-12-05T02:10:16;6.45;;;3.00;;
70967;SDS011;58629;48.808;8.820;2022-12-05T02:12:41;6.13;;;2.97;;
70967;SDS011;58629;48.808;8.820;2022-12-05T02:31:15;9.18;;;4.07;;
70967;SDS011;58629;48.808;8.820;2022-12-05T02:33:51;9.60;;;4.13;;
70967;SDS011;58629;48.808;8.820;2022-12-05T02:36:26;11.60;;;4.85;;
70967;SDS011;58629;48.808;8.820;2022-12-05T02:41:45;12.73;;;5.05;;
70967;SDS011;58629;48.808;8.820;2022-12-05T02:44:34;10.60;;;4.85;;
70967;SDS011;58629;48.808;8.820;2022-12-05T02:47:04;11.23;;;4.80;;
70967;SDS011;58629;48.808;8.820;2022-12-05T02:49:34;12.10;;;4.68;;
70967;SDS011;58629;48.808;8.820;2022-12-05T02:52:02;11.70;;;5.05;;
70967;SDS011;58629;48.808;8.820;2022-12-05T02:54:30;11.07;;;4.95;;
70967;SDS011;58629;48.808;8.820;2022-12-05T02:56:59;11.70;;;4.80;;
70967;SDS011;58629;48.808;8.820;2022-12-05T02:59:25;11.23;;;4.33;;
70967;SDS011;58629;48.808;8.820;2022-12-05T03:01:51;11.40;;;4.30;;
70967;SDS011;58629;48.808;8.820;2022-12-05T03:04:17;11.57;;;5.00;;
70967;SDS011;58629;48.808;8.820;2022-12-05T03:06:46;11.77;;;5.20;;
70967;SDS011;58629;48.808;8.820;2022-12-05T03:09:20;13.27;;;5.68;;
70967;SDS011;58629;48.808;8.820;2022-12-05T03:11:51;13.37;;;5.73;;
70967;SDS011;58629;48.808;8.820;2022-12-05T03:14:38;13.50;;;5.45;;
70967;SDS011;58629;48.808;8.820;2022-12-05T03:17:09;16.35;;;6.35;;
70967;SDS011;58629;48.808;8.820;2022-12-05T03:19:42;13.57;;;5.07;;
70967;SDS011;58629;48.808;8.820;2022-12-05T03:22:13;11.27;;;4.82;;
70967;SDS011;58629;48.808;8.820;2022-12-05T03:24:46;11.97;;;4.70;;
70967;SDS011;58629;48.808;8.820;2022-12-05T03:27:15;9.38;;;3.83;;
70967;SDS011;58629;48.808;8.820;2022-12-05T03:30:23;9.57;;;4.05;;
70967;SDS011;58629;48.808;8.820;2022-12-05T03:38:08;15.17;;;5.30;;
70967;SDS011;58629;48.808;8.820;2022-12-05T03:40:44;12.57;;;5.47;;
70967;SDS011;58629;48.808;8.820;2022-12-05T03:46:20;13.05;;;5.25;;
70967;SDS011;58629;48.808;8.820;2022-12-05T03:52:12;13.47;;;5.37;;
70967;SDS011;58629;48.808;8.820;2022-12-05T03:54:23;13.88;;;5.68;;
70967;SDS011;58629;48.808;8.820;2022-12-05T03:56:57;14.23;;;5.32;;
70967;SDS011;58629;48.808;8.820;2022-12-05T03:59:29;13.95;;;5.30;;
70967;SDS011;58629;48.808;8.820;2022-12-05T04:01:59;12.10;;;4.90;;
70967;SDS011;58629;48.808;8.820;2022-12-05T04:04:30;11.83;;;4.60;;
70967;SDS011;58629;48.808;8.820;2022-12-05T04:07:00;12.52;;;4.60;;
70967;SDS011;58629;48.808;8.820;2022-12-05T04:09:30;10.88;;;4.55;;
70967;SDS011;58629;48.808;8.820;2022-12-05T04:12:05;9.30;;;3.67;;
70967;SDS011;58629;48.808;8.820;2022-12-05T04:14:42;10.32;;;3.97;;
70967;SDS011;58629;48.808;8.820;2022-12-05T04:20:02;13.25;;;5.13;;
70967;SDS011;58629;48.808;8.820;2022-12-05T04:22:50;16.15;;;5.63;;
70967;SDS011;58629;48.808;8.820;2022-12-05T04:25:15;15.33;;;5.53;;
70967;SDS011;58629;48.808;8.820;2022-12-05T04:30:48;12.05;;;4.57;;
70967;SDS011;58629;48.808;8.820;2022-12-05T04:33:28;10.10;;;3.92;;
70967;SDS011;58629;48.808;8.820;2022-12-05T04:38:40;10.17;;;3.77;;
70967;SDS011;58629;48.808;8.820;2022-12-05T04:41:13;8.45;;;3.25;;
70967;SDS011;58629;48.808;8.820;2022-12-05T04:43:45;12.02;;;4.57;;
70967;SDS011;58629;48.808;8.820;2022-12-05T04:46:13;12.80;;;4.72;;
70967;SDS011;58629;48.808;8.820;2022-12-05T04:48:43;8.70;;;3.95;;
70967;SDS011;58629;48.808;8.820;2022-12-05T04:51:14;9.40;;;3.80;;
70967;SDS011;58629;48.808;8.820;2022-12-05T04:53:43;15.13;;;5.55;;
70967;SDS011;58629;48.808;8.820;2022-12-05T04:56:10;11.07;;;4.35;;
70967;SDS011;58629;48.808;8.820;2022-12-05T04:58:40;9.75;;;4.07;;
70967;SDS011;58629;48.808;8.820;2022-12-05T05:04:13;21.15;;;8.07;;
70967;SDS011;58629;48.808;8.820;2022-12-05T05:06:43;17.20;;;7.10;;
70967;SDS011;58629;48.808;8.820;2022-12-05T05:09:08;17.42;;;6.43;;
70967;SDS011;58629;48.808;8.820;2022-12-05T05:11:34;16.87;;;5.90;;
70967;SDS011;58629;48.808;8.820;2022-12-05T05:14:00;15.38;;;6.40;;
70967;SDS011;58629;48.808;8.820;2022-12-05T05:16:30;13.15;;;5.95;;
70967;SDS011;58629;48.808;8.820;2022-12-05T05:18:57;12.07;;;4.90;;
70967;SDS011;58629;48.808;8.820;2022-12-05T05:21:24;13.32;;;5.80;;
70967;SDS011;58629;48.808;8.820;2022-12-05T05:23:54;14.80;;;6.23;;
70967;SDS011;58629;48.808;8.820;2022-12-05T05:26:20;13.77;;;6.25;;
70967;SDS011;58629;48.808;8.820;2022-12-05T05:28:46;14.48;;;6.10;;
70967;SDS011;58629;48.808;8.820;2022-12-05T05:31:12;13.40;;;5.57;;
70967;SDS011;58629;48.808;8.820;2022-12-05T05:33:38;13.05;;;6.00;;
70967;SDS011;58629;48.808;8.820;2022-12-05T05:36:05;11.40;;;5.00;;
70967;SDS011;58629;48.808;8.820;2022-12-05T05:38:36;11.07;;;4.77;;
70967;SDS011;58629;48.808;8.820;2022-12-05T05:41:10;11.60;;;4.90;;
70967;SDS011;58629;48.808;8.820;2022-12-05T05:43:40;9.50;;;3.80;;
70967;SDS011;58629;48.808;8.820;2022-12-05T05:46:05;8.52;;;3.63;;
70967;SDS011;58629;48.808;8.820;2022-12-05T05:48:31;7.88;;;3.30;;
70967;SDS011;58629;48.808;8.820;2022-12-05T05:50:57;6.97;;;3.10;;
70967;SDS011;58629;48.808;8.820;2022-12-05T05:53:24;7.93;;;3.60;;
70967;SDS011;58629;48.808;8.820;2022-12-05T05:55:49;7.47;;;3.40;;
70967;SDS011;58629;48.808;8.820;2022-12-05T05:58:14;7.13;;;3.37;;
70967;SDS011;58629;48.808;8.820;2022-12-05T06:00:39;9.50;;;3.60;;
70967;SDS011;58629;48.808;8.820;2022-12-05T06:03:05;10.70;;;4.20;;
70967;SDS011;58629;48.808;8.820;2022-12-05T06:05:30;12.70;;;5.75;;
70967;SDS011;58629;48.808;8.820;2022-12-05T06:07:55;13.43;;;6.00;;
70967;SDS011;58629;48.808;8.820;2022-12-05T06:10:20;11.73;;;5.43;;
70967;SDS011;58629;48.808;8.820;2022-12-05T06:12:46;13.73;;;6.00;;
70967;SDS011;58629;48.808;8.820;2022-12-05T06:15:11;13.33;;;5.87;;
70967;SDS011;58629;48.808;8.820;2022-12-05T06:17:36;12.43;;;5.20;;
70967;SDS011;58629;48.808;8.820;2022-12-05T06:20:02;11.73;;;5.57;;
70967;SDS011;58629;48.808;8.820;2022-12-05T06:22:29;16.50;;;6.50;;
70967;SDS011;58629;48.808;8.820;2022-12-05T06:24:54;13.07;;;5.40;;
70967;SDS011;58629;48.808;8.820;2022-12-05T06:27:19;15.13;;;7.07;;
70967;SDS011;58629;48.808;8.820;2022-12-05T06:29:44;15.27;;;6.53;;
70967;SDS011;58629;48.808;8.820;2022-12-05T06:32:10;13.70;;;6.13;;
70967;SDS011;58629;48.808;8.820;2022-12-05T06:34:35;13.53;;;6.23;;
70967;SDS011;58629;48.808;8.820;2022-12-05T06:37:00;10.87;;;5.17;;
70967;SDS011;58629;48.808;8.820;2022-12-05T06:39:26;11.10;;;4.73;;
70967;SDS011;58629;48.808;8.820;2022-12-05T06:41:52;10.10;;;4.90;;
70967;SDS011;58629;48.808;8.820;2022-12-05T06:44:17;12.17;;;5.50;;
70967;SDS011;58629;48.808;8.820;2022-12-05T06:46:42;11.63;;;5.20;;
70967;SDS011;58629;48.808;8.820;2022-12-05T06:49:08;10.57;;;4.90;;
70967;SDS011;58629;48.808;8.820;2022-12-05T06:51:34;10.13;;;4.82;;
70967;SDS011;58629;48.808;8.820;2022-12-05T06:53:59;10.33;;;4.63;;
70967;SDS011;58629;48.808;8.820;2022-12-05T06:56:24;11.73;;;5.10;;
70967;SDS011;58629;48.808;8.820;2022-12-05T06:58:49;16.13;;;6.87;;
70967;SDS011;58629;48.808;8.820;2022-12-05T07:01:18;15.88;;;7.15;;
70967;SDS011;58629;48.808;8.820;2022-12-05T07:04:05;13.03;;;5.97;;
70967;SDS011;58629;48.808;8.820;2022-12-05T07:06:31;11.18;;;5.40;;
70967;SDS011;58629;48.808;8.820;2022-12-05T07:08:57;12.23;;;5.65;;
70967;SDS011;58629;48.808;8.820;2022-12-05T07:11:23;11.93;;;5.17;;
70967;SDS011;58629;48.808;8.820;2022-12-05T07:13:48;16.13;;;7.23;;
70967;SDS011;58629;48.808;8.820;2022-12-05T07:16:13;14.65;;;6.90;;
70967;SDS011;58629;48.808;8.820;2022-12-05T07:18:38;11.98;;;5.95;;
70967;SDS011;58629;48.808;8.820;2022-12-05T07:21:05;11.43;;;5.20;;
70967;SDS011;58629;48.808;8.820;2022-12-05T07:23:31;12.27;;;5.30;;
70967;SDS011;58629;48.808;8.820;2022-12-05T07:25:57;10.90;;;4.73;;
70967;SDS011;58629;48.808;8.820;2022-12-05T07:28:22;9.75;;;4.45;;
70967;SDS011;58629;48.808;8.820;2022-12-05T07:30:48;9.63;;;4.22;;
70967;SDS011;58629;48.808;8.820;2022-12-05T07:33:23;8.60;;;4.20;;
70967;SDS011;58629;48.808;8.820;2022-12-05T07:35:49;7.80;;;3.73;;
70967;SDS011;58629;48.808;8.820;2022-12-05T07:38:14;9.73;;;4.43;;
70967;SDS011;58629;48.808;8.820;2022-12-05T07:40:39;10.03;;;4.80;;
70967;SDS011;58629;48.808;8.820;2022-12-05T07:43:05;7.60;;;4.10;;
70967;SDS011;58629;48.808;8.820;2022-12-05T07:45:30;8.83;;;4.07;;
70967;SDS011;58629;48.808;8.820;2022-12-05T07:47:59;8.48;;;3.78;;
70967;SDS011;58629;48.808;8.820;2022-12-05T07:50:24;7.27;;;3.67;;
70967;SDS011;58629;48.808;8.820;2022-12-05T07:52:49;7.93;;;3.60;;
70967;SDS011;58629;48.808;8.820;2022-12-05T07:55:15;6.10;;;3.23;;
70967;SDS011;58629;48.808;8.820;2022-12-05T07:57:40;6.57;;;3.20;;
70967;SDS011;58629;48.808;8.820;2022-12-05T08:00:05;6.97;;;3.60;;
70967;SDS011;58629;48.808;8.820;2022-12-05T08:02:31;5.35;;;2.90;;
70967;SDS011;58629;48.808;8.820;2022-12-05T08:04:57;6.00;;;3.13;;
70967;SDS011;58629;48.808;8.820;2022-12-05T08:07:22;5.75;;;2.90;;
70967;SDS011;58629;48.808;8.820;2022-12-05T08:09:47;5.13;;;2.88;;
70967;SDS011;58629;48.808;8.820;2022-12-05T08:12:13;5.35;;;2.90;;
70967;SDS011;58629;48.808;8.820;2022-12-05T08:14:38;5.63;;;3.10;;
70967;SDS011;58629;48.808;8.820;2022-12-05T08:17:03;6.97;;;3.70;;
70967;SDS011;58629;48.808;8.820;2022-12-05T08:19:28;7.30;;;3.90;;
70967;SDS011;58629;48.808;8.820;2022-12-05T08:21:54;7.23;;;3.73;;
70967;SDS011;58629;48.808;8.820;2022-12-05T08:24:19;5.90;;;3.57;;
70967;SDS011;58629;48.808;8.820;2022-12-05T08:26:45;6.47;;;3.60;;
70967;SDS011;58629;48.808;8.820;2022-12-05T08:29:11;6.50;;;3.33;;
70967;SDS011;58629;48.808;8.820;2022-12-05T08:31:39;6.22;;;3.35;;
70967;SDS011;58629;48.808;8.820;2022-12-05T08:34:11;6.18;;;3.33;;
70967;SDS011;58629;48.808;8.820;2022-12-05T08:36:38;8.73;;;4.85;;
70967;SDS011;58629;48.808;8.820;2022-12-05T08:39:05;9.00;;;5.10;;
70967;SDS011;58629;48.808;8.820;2022-12-05T08:41:31;8.47;;;4.40;;
70967;SDS011;58629;48.808;8.820;2022-12-05T08:43:58;8.70;;;4.32;;
70967;SDS011;58629;48.808;8.820;2022-12-05T08:46:26;10.65;;;4.80;;
70967;SDS011;58629;48.808;8.820;2022-12-05T08:48:52;9.90;;;5.03;;
70967;SDS011;58629;48.808;8.820;2022-12-05T08:51:17;12.20;;;6.53;;
70967;SDS011;58629;48.808;8.820;2022-12-05T08:53:42;10.53;;;6.27;;
70967;SDS011;58629;48.808;8.820;2022-12-05T08:56:08;12.53;;;6.00;;
70967;SDS011;58629;48.808;8.820;2022-12-05T08:58:34;11.23;;;6.30;;
70967;SDS011;58629;48.808;8.820;2022-12-05T09:01:04;11.98;;;5.95;;
70967;SDS011;58629;48.808;8.820;2022-12-05T09:03:32;10.68;;;5.00;;
70967;SDS011;58629;48.808;8.820;2022-12-05T09:06:32;9.93;;;4.82;;
70967;SDS011;58629;48.808;8.820;2022-12-05T09:09:09;10.90;;;5.50;;
70967;SDS011;58629;48.808;8.820;2022-12-05T09:11:37;8.48;;;4.55;;
70967;SDS011;58629;48.808;8.820;2022-12-05T09:14:05;13.82;;;6.95;;
70967;SDS011;58629;48.808;8.820;2022-12-05T09:16:32;14.30;;;8.00;;
70967;SDS011;58629;48.808;8.820;2022-12-05T09:18:59;14.63;;;7.75;;
70967;SDS011;58629;48.808;8.820;2022-12-05T09:21:25;12.97;;;6.80;;
70967;SDS011;58629;48.808;8.820;2022-12-05T09:23:53;12.93;;;6.68;;
70967;SDS011;58629;48.808;8.820;2022-12-05T09:26:20;13.17;;;6.73;;
70967;SDS011;58629;48.808;8.820;2022-12-05T09:28:48;14.35;;;7.70;;
70967;SDS011;58629;48.808;8.820;2022-12-05T09:31:15;12.90;;;6.45;;
70967;SDS011;58629;48.808;8.820;2022-12-05T09:33:43;12.47;;;6.40;;
70967;SDS011;58629;48.808;8.820;2022-12-05T09:36:13;12.25;;;6.32;;
70967;SDS011;58629;48.808;8.820;2022-12-05T09:38:49;10.82;;;5.57;;
70967;SDS011;58629;48.808;8.820;2022-12-05T09:47:07;10.40;;;4.63;;
70967;SDS011;58629;48.808;8.820;2022-12-05T09:52:27;12.27;;;4.93;;
70967;SDS011;58629;48.808;8.820;2022-12-05T09:54:54;8.77;;;4.70;;
70967;SDS011;58629;48.808;8.820;2022-12-05T09:57:29;9.13;;;4.72;;
70967;SDS011;58629;48.808;8.820;2022-12-05T10:00:01;8.93;;;5.27;;
70967;SDS011;58629;48.808;8.820;2022-12-05T10:02:31;10.52;;;5.07;;
70967;SDS011;58629;48.808;8.820;2022-12-05T10:05:10;7.80;;;4.32;;
70967;SDS011;58629;48.808;8.820;2022-12-05T10:07:57;7.63;;;3.85;;
70967;SDS011;58629;48.808;8.820;2022-12-05T10:15:55;5.85;;;3.42;;
70967;SDS011;58629;48.808;8.820;2022-12-05T10:18:33;6.05;;;3.47;;
70967;SDS011;58629;48.808;8.820;2022-12-05T10:26:16;7.07;;;4.00;;
70967;SDS011;58629;48.808;8.820;2022-12-05T10:31:41;6.00;;;3.13;;
70967;SDS011;58629;48.808;8.820;2022-12-05T10:34:12;5.38;;;2.95;;
70967;SDS011;58629;48.808;8.820;2022-12-05T10:36:50;6.88;;;4.15;;
70967;SDS011;58629;48.808;8.820;2022-12-05T10:39:20;8.83;;;4.53;;
70967;SDS011;58629;48.808;8.820;2022-12-05T10:41:46;8.35;;;4.60;;
70967;SDS011;58629;48.808;8.820;2022-12-05T10:44:12;6.83;;;4.50;;
70967;SDS011;58629;48.808;8.820;2022-12-05T10:46:37;7.43;;;4.13;;
70967;SDS011;58629;48.808;8.820;2022-12-05T10:49:04;7.93;;;4.87;;
70967;SDS011;58629;48.808;8.820;2022-12-05T10:51:34;7.07;;;4.47;;
70967;SDS011;58629;48.808;8.820;2022-12-05T10:54:00;6.83;;;3.97;;
70967;SDS011;58629;48.808;8.820;2022-12-05T10:59:10;11.50;;;5.80;;
70967;SDS011;58629;48.808;8.820;2022-12-05T11:01:42;10.25;;;5.30;;
70967;SDS011;58629;48.808;8.820;2022-12-05T11:04:31;7.67;;;4.67;;
70967;SDS011;58629;48.808;8.820;2022-12-05T11:07:09;10.70;;;5.97;;
70967;SDS011;58629;48.808;8.820;2022-12-05T11:09:53;10.98;;;6.40;;
70967;SDS011;58629;48.808;8.820;2022-12-05T11:12:19;9.17;;;5.70;;
70967;SDS011;58629;48.808;8.820;2022-12-05T11:15:03;8.88;;;5.22;;
70967;SDS011;58629;48.808;8.820;2022-12-05T11:17:53;7.38;;;4.38;;
70967;SDS011;58629;48.808;8.820;2022-12-05T11:22:45;6.70;;;3.93;;
70967;SDS011;58629;48.808;8.820;2022-12-05T11:28:12;6.15;;;3.65;;
70967;SDS011;58629;48.808;8.820;2022-12-05T11:33:29;6.00;;;3.63;;
70967;SDS011;58629;48.808;8.820;2022-12-05T11:36:11;5.07;;;3.20;;
70967;SDS011;58629;48.808;8.820;2022-12-05T11:38:42;5.85;;;3.65;;
70967;SDS011;58629;48.808;8.820;2022-12-05T11:50:12;4.57;;;2.80;;
70967;SDS011;58629;48.808;8.820;2022-12-05T11:52:51;6.05;;;3.08;;
70967;SDS011;58629;48.808;8.820;2022-12-05T11:55:28;6.03;;;3.58;;
70967;SDS011;58629;48.808;8.820;2022-12-05T11:57:58;6.17;;;3.60;;
70967;SDS011;58629;48.808;8.820;2022-12-05T12:03:37;6.22;;;3.58;;
70967;SDS011;58629;48.808;8.820;2022-12-05T12:11:35;4.63;;;2.90;;
70967;SDS011;58629;48.808;8.820;2022-12-05T12:14:16;4.50;;;2.60;;
70967;SDS011;58629;48.808;8.820;2022-12-05T12:16:56;5.72;;;2.47;;
70967;SDS011;58629;48.808;8.820;2022-12-05T12:22:06;3.47;;;2.55;;
70967;SDS011;58629;48.808;8.820;2022-12-05T12:24:59;4.53;;;2.37;;
70967;SDS011;58629;48.808;8.820;2022-12-05T12:33:04;3.50;;;1.98;;
70967;SDS011;58629;48.808;8.820;2022-12-05T12:44:39;2.92;;;1.60;;
70967;SDS011;58629;48.808;8.820;2022-12-05T12:47:10;2.92;;;1.98;;
70967;SDS011;58629;48.808;8.820;2022-12-05T12:56:10;2.20;;;1.55;;
70967;SDS011;58629;48.808;8.820;2022-12-05T13:04:16;2.28;;;1.52;;
70967;SDS011;58629;48.808;8.820;2022-12-05T13:06:47;2.50;;;1.70;;
70967;SDS011;58629;48.808;8.820;2022-12-05T13:09:21;2.65;;;1.63;;
70967;SDS011;58629;48.808;8.820;2022-12-05T13:11:53;2.30;;;1.40;;
70967;SDS011;58629;48.808;8.820;2022-12-05T13:14:21;2.25;;;1.50;;
70967;SDS011;58629;48.808;8.820;2022-12-05T13:16:50;3.30;;;2.80;;
70967;SDS011;58629;48.808;8.820;2022-12-05T13:19:23;2.07;;;1.47;;
70967;SDS011;58629;48.808;8.820;2022-12-05T13:21:54;2.78;;;1.67;;
70967;SDS011;58629;48.808;8.820;2022-12-05T13:24:22;2.17;;;1.52;;
70967;SDS011;58629;48.808;8.820;2022-12-05T13:26:50;2.47;;;1.55;;
70967;SDS011;58629;48.808;8.820;2022-12-05T13:29:28;2.83;;;1.47;;
70967;SDS011;58629;48.808;8.820;2022-12-05T13:31:56;2.45;;;1.48;;
70967;SDS011;58629;48.808;8.820;2022-12-05T13:34:43;2.88;;;1.70;;
70967;SDS011;58629;48.808;8.820;2022-12-05T13:37:16;2.00;;;1.30;;
70967;SDS011;58629;48.808;8.820;2022-12-05T13:40:03;1.67;;;1.00;;
70967;SDS011;58629;48.808;8.820;2022-12-05T13:42:47;2.13;;;1.17;;
70967;SDS011;58629;48.808;8.820;2022-12-05T13:45:25;1.88;;;1.10;;
70967;SDS011;58629;48.808;8.820;2022-12-05T13:47:54;3.55;;;1.80;;
70967;SDS011;58629;48.808;8.820;2022-12-05T13:50:27;3.47;;;2.10;;
70967;SDS011;58629;48.808;8.820;2022-12-05T13:52:59;5.90;;;3.33;;
70967;SDS011;58629;48.808;8.820;2022-12-05T13:58:02;11.15;;;5.70;;
70967;SDS011;58629;48.808;8.820;2022-12-05T14:00:48;8.73;;;5.00;;
70967;SDS011;58629;48.808;8.820;2022-12-05T14:03:53;8.07;;;4.90;;
70967;SDS011;58629;48.808;8.820;2022-12-05T14:06:02;7.00;;;4.40;;
70967;SDS011;58629;48.808;8.820;2022-12-05T14:15:43;7.80;;;4.23;;
70967;SDS011;58629;48.808;8.820;2022-12-05T14:18:17;5.83;;;3.43;;
70967;SDS011;58629;48.808;8.820;2022-12-05T14:21:04;6.90;;;3.67;;
70967;SDS011;58629;48.808;8.820;2022-12-05T14:26:26;5.45;;;3.08;;
70967;SDS011;58629;48.808;8.820;2022-12-05T14:32:30;7.53;;;4.27;;
70967;SDS011;58629;48.808;8.820;2022-12-05T14:35:18;8.73;;;4.10;;
70967;SDS011;58629;48.808;8.820;2022-12-05T14:37:54;7.95;;;4.50;;
70967;SDS011;58629;48.808;8.820;2022-12-05T14:50:45;9.63;;;5.50;;
70967;SDS011;58629;48.808;8.820;2022-12-05T14:56:15;9.00;;;5.50;;
70967;SDS011;58629;48.808;8.820;2022-12-05T14:58:49;7.97;;;4.45;;
70967;SDS011;58629;48.808;8.820;2022-12-05T15:01:20;6.57;;;3.73;;
70967;SDS011;58629;48.808;8.820;2022-12-05T15:04:07;6.90;;;3.80;;
70967;SDS011;58629;48.808;8.820;2022-12-05T15:06:36;9.43;;;4.90;;
70967;SDS011;58629;48.808;8.820;2022-12-05T15:09:20;7.63;;;4.45;;
70967;SDS011;58629;48.808;8.820;2022-12-05T15:11:55;6.90;;;4.10;;
70967;SDS011;58629;48.808;8.820;2022-12-05T15:14:22;6.50;;;3.83;;
70967;SDS011;58629;48.808;8.820;2022-12-05T15:16:52;6.80;;;3.70;;
70967;SDS011;58629;48.808;8.820;2022-12-05T15:19:32;4.80;;;2.95;;
70967;SDS011;58629;48.808;8.820;2022-12-05T15:22:18;9.65;;;5.30;;
70967;SDS011;58629;48.808;8.820;2022-12-05T15:24:46;7.57;;;4.47;;
70967;SDS011;58629;48.808;8.820;2022-12-05T15:27:12;6.17;;;3.50;;
70967;SDS011;58629;48.808;8.820;2022-12-05T15:29:38;6.30;;;3.70;;
70967;SDS011;58629;48.808;8.820;2022-12-05T15:32:12;5.13;;;3.08;;
70967;SDS011;58629;48.808;8.820;2022-12-05T15:42:21;8.93;;;5.22;;
70967;SDS011;58629;48.808;8.820;2022-12-05T15:44:47;9.98;;;5.60;;
70967;SDS011;58629;48.808;8.820;2022-12-05T15:47:22;13.60;;;6.93;;
70967;SDS011;58629;48.808;8.820;2022-12-05T15:49:50;15.98;;;7.35;;
70967;SDS011;58629;48.808;8.820;2022-12-05T15:55:04;13.02;;;7.22;;
70967;SDS011;58629;48.808;8.820;2022-12-05T15:57:36;11.48;;;6.93;;
70967;SDS011;58629;48.808;8.820;2022-12-05T16:00:12;11.82;;;6.90;;
70967;SDS011;58629;48.808;8.820;2022-12-05T16:02:47;12.03;;;6.50;;
70967;SDS011;58629;48.808;8.820;2022-12-05T16:05:23;10.55;;;5.45;;
70967;SDS011;58629;48.808;8.820;2022-12-05T16:07:53;11.32;;;6.25;;
70967;SDS011;58629;48.808;8.820;2022-12-05T16:10:19;8.87;;;5.30;;
70967;SDS011;58629;48.808;8.820;2022-12-05T16:12:45;12.85;;;6.70;;
70967;SDS011;58629;48.808;8.820;2022-12-05T16:17:47;10.55;;;5.72;;
70967;SDS011;58629;48.808;8.820;2022-12-05T16:22:43;13.03;;;6.70;;
70967;SDS011;58629;48.808;8.820;2022-12-05T16:25:15;9.47;;;5.47;;
70967;SDS011;58629;48.808;8.820;2022-12-05T16:27:43;8.55;;;4.65;;
70967;SDS011;58629;48.808;8.820;2022-12-05T16:30:21;8.77;;;4.63;;
70967;SDS011;58629;48.808;8.820;2022-12-05T16:32:47;8.70;;;4.47;;
70967;SDS011;58629;48.808;8.820;2022-12-05T16:35:26;6.55;;;3.58;;
70967;SDS011;58629;48.808;8.820;2022-12-05T16:40:29;6.18;;;3.38;;
70967;SDS011;58629;48.808;8.820;2022-12-05T16:43:04;5.83;;;3.70;;
70967;SDS011;58629;48.808;8.820;2022-12-05T16:45:39;6.40;;;3.30;;
70967;SDS011;58629;48.808;8.820;2022-12-05T16:48:41;6.25;;;3.40;;
70967;SDS011;58629;48.808;8.820;2022-12-05T16:53:48;5.50;;;3.30;;
70967;SDS011;58629;48.808;8.820;2022-12-05T16:56:15;7.30;;;4.40;;
70967;SDS011;58629;48.808;8.820;2022-12-05T16:58:43;4.63;;;2.75;;
70967;SDS011;58629;48.808;8.820;2022-12-05T17:01:13;4.37;;;2.47;;
70967;SDS011;58629;48.808;8.820;2022-12-05T17:03:49;5.20;;;2.58;;
70967;SDS011;58629;48.808;8.820;2022-12-05T17:06:15;4.85;;;2.88;;
70967;SDS011;58629;48.808;8.820;2022-12-05T17:08:45;4.10;;;2.40;;
70967;SDS011;58629;48.808;8.820;2022-12-05T17:11:24;4.88;;;3.00;;
70967;SDS011;58629;48.808;8.820;2022-12-05T17:13:51;4.35;;;2.40;;
70967;SDS011;58629;48.808;8.820;2022-12-05T17:16:19;5.28;;;3.10;;
70967;SDS011;58629;48.808;8.820;2022-12-05T17:18:44;6.77;;;3.50;;
70967;SDS011;58629;48.808;8.820;2022-12-05T17:21:13;8.68;;;4.70;;
70967;SDS011;58629;48.808;8.820;2022-12-05T17:23:40;12.38;;;6.63;;
70967;SDS011;58629;48.808;8.820;2022-12-05T17:26:07;13.47;;;6.57;;
70967;SDS011;58629;48.808;8.820;2022-12-05T17:28:36;17.25;;;8.60;;
70967;SDS011;58629;48.808;8.820;2022-12-05T17:31:01;15.37;;;8.43;;
70967;SDS011;58629;48.808;8.820;2022-12-05T17:33:26;21.20;;;10.63;;
70967;SDS011;58629;48.808;8.820;2022-12-05T17:35:52;13.40;;;7.60;;
70967;SDS011;58629;48.808;8.820;2022-12-05T17:38:17;10.23;;;6.97;;
70967;SDS011;58629;48.808;8.820;2022-12-05T17:40:42;9.70;;;5.67;;
70967;SDS011;58629;48.808;8.820;2022-12-05T17:43:09;9.20;;;5.68;;
70967;SDS011;58629;48.808;8.820;2022-12-05T17:45:37;8.38;;;4.70;;
70967;SDS011;58629;48.808;8.820;2022-12-05T17:48:02;10.10;;;5.90;;